Eastern Sierra Regional Airport
KBIH : now visible

Airfield :











YOU CAN JOIN US ON...

 
LOGIN :

Register | Disclaimer

   EN    FR    IT 

 









Legend :    VFR   Marginal VFR   IFR   Intensive IFR   Very Intensive IFR
Visi :
Ceiling :
>= 8 km
>= 3000ft
5 to 8 km
1000 to 3000 ft
1500m to 5 km
500 to 1000 ft
800 to 1500m
200 to 500 ft
< 800m
< 200 ft
Symbols :   Thunderstorms  Fog  Heavy snow  Heavy precipitations  Wind > 20 kt






- Airport Elevation : 4124 ft


KBIH - Eastern Sierra Regional

CURRENT METAR :
  • 260056Z AUTO 21006KT 10SM CLR 33/M03 A2994 RMK AO2 SLP091 T03281028

EXPIRED METARs :
  • 252356Z AUTO 19007KT 160V230 10SM CLR 33/M03 A2995 RMK AO2 SLP097 T03331028 10333 20267 56022
  • 252256Z AUTO 00000KT 10SM CLR 33/M04 A2997 RMK AO2 SLP101 T03281039

TAF KBIH
Valid from the 26 at 00:00 until the 27 at 00:00 UTC


252320Z 2600/2624 16007KT P6SM SKC
FM260300 34007KT P6SM SKC
FM261600 VRB05KT P6SM SKC
FM262200 27008KT P6SM SKC
KZOA FIR / North America



MET'MAP, your aeronautical weather chart ! - Copyright ORBIFLY December 2007 - Disclaimer

ORBIFLY MET'MAP TEAM :

Programming & Development : Alexandra Zaïnal
Concept & original design : Baudouin d'Aumeries
Assistance for programming : Marc-Olivier Méhu
Technical & hardware support : Manuel Goepfert

Contact : metmap@orbifly.com




SOURCES & CREDITS :

   NOAA       Earth
Advisory